sensor_id;sensor_type;location;lat;lon;timestamp;P1;durP1;ratioP1;P2;durP2;ratioP2
58252;SDS011;44050;48.884;8.762;2023-02-28T00:02:04;1.60;;;0.93;;
58252;SDS011;44050;48.884;8.762;2023-02-28T00:04:35;2.70;;;0.80;;
58252;SDS011;44050;48.884;8.762;2023-02-28T00:07:06;0.73;;;0.67;;
58252;SDS011;44050;48.884;8.762;2023-02-28T00:09:37;1.13;;;1.10;;
58252;SDS011;44050;48.884;8.762;2023-02-28T00:12:07;2.17;;;1.20;;
58252;SDS011;44050;48.884;8.762;2023-02-28T00:14:40;2.30;;;0.65;;
58252;SDS011;44050;48.884;8.762;2023-02-28T00:17:11;4.27;;;2.00;;
58252;SDS011;44050;48.884;8.762;2023-02-28T00:19:41;1.47;;;0.90;;
58252;SDS011;44050;48.884;8.762;2023-02-28T00:22:12;0.88;;;0.80;;
58252;SDS011;44050;48.884;8.762;2023-02-28T00:24:43;1.23;;;1.10;;
58252;SDS011;44050;48.884;8.762;2023-02-28T00:27:14;2.83;;;1.17;;
58252;SDS011;44050;48.884;8.762;2023-02-28T00:29:46;1.20;;;1.20;;
58252;SDS011;44050;48.884;8.762;2023-02-28T00:32:16;1.27;;;0.68;;
58252;SDS011;44050;48.884;8.762;2023-02-28T00:34:49;1.50;;;0.88;;
58252;SDS011;44050;48.884;8.762;2023-02-28T00:37:19;2.10;;;1.27;;
58252;SDS011;44050;48.884;8.762;2023-02-28T00:39:50;2.87;;;1.03;;
58252;SDS011;44050;48.884;8.762;2023-02-28T00:42:21;0.57;;;0.57;;
58252;SDS011;44050;48.884;8.762;2023-02-28T00:44:52;0.77;;;0.77;;
58252;SDS011;44050;48.884;8.762;2023-02-28T00:47:23;1.27;;;1.20;;
58252;SDS011;44050;48.884;8.762;2023-02-28T00:49:53;1.37;;;1.27;;
58252;SDS011;44050;48.884;8.762;2023-02-28T00:52:24;1.27;;;1.17;;
58252;SDS011;44050;48.884;8.762;2023-02-28T00:54:55;1.23;;;1.13;;
58252;SDS011;44050;48.884;8.762;2023-02-28T00:57:26;3.93;;;2.20;;
58252;SDS011;44050;48.884;8.762;2023-02-28T00:59:56;1.97;;;1.47;;
58252;SDS011;44050;48.884;8.762;2023-02-28T01:02:27;1.80;;;1.53;;
58252;SDS011;44050;48.884;8.762;2023-02-28T01:04:58;1.60;;;1.50;;
58252;SDS011;44050;48.884;8.762;2023-02-28T01:07:29;2.33;;;2.13;;
58252;SDS011;44050;48.884;8.762;2023-02-28T01:09:59;1.07;;;1.07;;
58252;SDS011;44050;48.884;8.762;2023-02-28T01:12:30;1.73;;;1.40;;
58252;SDS011;44050;48.884;8.762;2023-02-28T01:15:01;0.77;;;0.77;;
58252;SDS011;44050;48.884;8.762;2023-02-28T01:17:31;1.23;;;1.13;;
58252;SDS011;44050;48.884;8.762;2023-02-28T01:20:05;1.48;;;1.25;;
58252;SDS011;44050;48.884;8.762;2023-02-28T01:22:36;1.40;;;1.25;;
58252;SDS011;44050;48.884;8.762;2023-02-28T01:25:06;1.23;;;1.13;;
58252;SDS011;44050;48.884;8.762;2023-02-28T01:27:37;1.92;;;1.33;;
58252;SDS011;44050;48.884;8.762;2023-02-28T01:30:10;1.58;;;1.48;;
58252;SDS011;44050;48.884;8.762;2023-02-28T01:32:40;1.58;;;1.35;;
58252;SDS011;44050;48.884;8.762;2023-02-28T01:35:11;1.37;;;1.03;;
58252;SDS011;44050;48.884;8.762;2023-02-28T01:37:42;1.58;;;1.48;;
58252;SDS011;44050;48.884;8.762;2023-02-28T01:40:13;1.27;;;1.23;;
58252;SDS011;44050;48.884;8.762;2023-02-28T01:42:44;1.75;;;1.17;;
58252;SDS011;44050;48.884;8.762;2023-02-28T01:45:30;5.30;;;1.87;;
58252;SDS011;44050;48.884;8.762;2023-02-28T01:48:02;2.17;;;1.35;;
58252;SDS011;44050;48.884;8.762;2023-02-28T01:50:35;2.50;;;1.00;;
58252;SDS011;44050;48.884;8.762;2023-02-28T01:53:09;1.15;;;1.05;;
58252;SDS011;44050;48.884;8.762;2023-02-28T01:55:41;1.55;;;1.45;;
58252;SDS011;44050;48.884;8.762;2023-02-28T01:58:12;1.50;;;1.38;;
58252;SDS011;44050;48.884;8.762;2023-02-28T02:00:43;1.02;;;0.98;;
58252;SDS011;44050;48.884;8.762;2023-02-28T02:03:15;3.33;;;1.95;;
58252;SDS011;44050;48.884;8.762;2023-02-28T02:05:49;0.82;;;0.82;;
58252;SDS011;44050;48.884;8.762;2023-02-28T02:08:21;1.17;;;1.07;;
58252;SDS011;44050;48.884;8.762;2023-02-28T02:10:57;1.40;;;1.30;;
58252;SDS011;44050;48.884;8.762;2023-02-28T02:13:42;1.30;;;1.20;;
58252;SDS011;44050;48.884;8.762;2023-02-28T02:16:40;4.63;;;2.03;;
58252;SDS011;44050;48.884;8.762;2023-02-28T02:19:32;2.33;;;1.50;;
58252;SDS011;44050;48.884;8.762;2023-02-28T02:30:31;1.25;;;1.15;;
58252;SDS011;44050;48.884;8.762;2023-02-28T02:33:14;1.35;;;1.25;;
58252;SDS011;44050;48.884;8.762;2023-02-28T02:38:23;1.70;;;1.37;;
58252;SDS011;44050;48.884;8.762;2023-02-28T02:43:47;2.50;;;1.45;;
58252;SDS011;44050;48.884;8.762;2023-02-28T02:46:20;1.55;;;1.45;;
58252;SDS011;44050;48.884;8.762;2023-02-28T02:48:52;1.98;;;1.80;;
58252;SDS011;44050;48.884;8.762;2023-02-28T02:51:25;3.38;;;1.42;;
58252;SDS011;44050;48.884;8.762;2023-02-28T02:54:17;1.88;;;1.67;;
58252;SDS011;44050;48.884;8.762;2023-02-28T02:56:50;1.42;;;1.33;;
58252;SDS011;44050;48.884;8.762;2023-02-28T02:59:22;2.17;;;1.40;;
58252;SDS011;44050;48.884;8.762;2023-02-28T03:01:55;2.80;;;1.73;;
58252;SDS011;44050;48.884;8.762;2023-02-28T03:04:28;2.60;;;1.77;;
58252;SDS011;44050;48.884;8.762;2023-02-28T03:07:02;1.80;;;1.70;;
58252;SDS011;44050;48.884;8.762;2023-02-28T03:09:33;1.60;;;1.50;;
58252;SDS011;44050;48.884;8.762;2023-02-28T03:12:07;3.08;;;1.90;;
58252;SDS011;44050;48.884;8.762;2023-02-28T03:20:40;1.85;;;1.73;;
58252;SDS011;44050;48.884;8.762;2023-02-28T03:22:52;1.17;;;1.13;;
58252;SDS011;44050;48.884;8.762;2023-02-28T03:28:22;4.15;;;2.10;;
58252;SDS011;44050;48.884;8.762;2023-02-28T03:30:57;2.90;;;1.50;;
58252;SDS011;44050;48.884;8.762;2023-02-28T03:36:02;1.27;;;1.17;;
58252;SDS011;44050;48.884;8.762;2023-02-28T03:41:15;1.58;;;1.15;;
58252;SDS011;44050;48.884;8.762;2023-02-28T03:43:55;2.53;;;1.83;;
58252;SDS011;44050;48.884;8.762;2023-02-28T03:46:28;1.88;;;1.40;;
58252;SDS011;44050;48.884;8.762;2023-02-28T03:49:02;2.35;;;1.77;;
58252;SDS011;44050;48.884;8.762;2023-02-28T03:51:34;1.98;;;1.70;;
58252;SDS011;44050;48.884;8.762;2023-02-28T03:54:08;2.33;;;2.22;;
58252;SDS011;44050;48.884;8.762;2023-02-28T03:56:41;2.17;;;1.67;;
58252;SDS011;44050;48.884;8.762;2023-02-28T03:59:15;4.68;;;2.15;;
58252;SDS011;44050;48.884;8.762;2023-02-28T04:01:48;3.17;;;1.58;;
58252;SDS011;44050;48.884;8.762;2023-02-28T04:04:19;3.10;;;1.60;;
58252;SDS011;44050;48.884;8.762;2023-02-28T04:06:51;1.97;;;1.57;;
58252;SDS011;44050;48.884;8.762;2023-02-28T04:09:22;1.30;;;1.20;;
58252;SDS011;44050;48.884;8.762;2023-02-28T04:11:53;2.90;;;1.88;;
58252;SDS011;44050;48.884;8.762;2023-02-28T04:14:26;2.42;;;1.60;;
58252;SDS011;44050;48.884;8.762;2023-02-28T04:16:56;1.35;;;1.27;;
58252;SDS011;44050;48.884;8.762;2023-02-28T04:19:27;3.37;;;1.90;;
58252;SDS011;44050;48.884;8.762;2023-02-28T04:21:58;2.27;;;2.07;;
58252;SDS011;44050;48.884;8.762;2023-02-28T04:24:29;2.47;;;1.70;;
58252;SDS011;44050;48.884;8.762;2023-02-28T04:26:59;1.92;;;1.73;;
58252;SDS011;44050;48.884;8.762;2023-02-28T04:29:31;2.55;;;1.70;;
58252;SDS011;44050;48.884;8.762;2023-02-28T04:32:04;4.18;;;2.13;;
58252;SDS011;44050;48.884;8.762;2023-02-28T04:34:35;2.33;;;2.03;;
58252;SDS011;44050;48.884;8.762;2023-02-28T04:37:06;1.73;;;1.63;;
58252;SDS011;44050;48.884;8.762;2023-02-28T04:39:37;2.63;;;2.25;;
58252;SDS011;44050;48.884;8.762;2023-02-28T04:42:07;1.97;;;1.70;;
58252;SDS011;44050;48.884;8.762;2023-02-28T04:44:38;1.33;;;1.23;;
58252;SDS011;44050;48.884;8.762;2023-02-28T04:47:10;1.85;;;1.70;;
58252;SDS011;44050;48.884;8.762;2023-02-28T04:49:41;1.55;;;1.45;;
58252;SDS011;44050;48.884;8.762;2023-02-28T04:52:12;2.63;;;2.00;;
58252;SDS011;44050;48.884;8.762;2023-02-28T04:54:43;2.22;;;2.13;;
58252;SDS011;44050;48.884;8.762;2023-02-28T04:57:14;4.87;;;2.17;;
58252;SDS011;44050;48.884;8.762;2023-02-28T04:59:45;2.50;;;1.90;;
58252;SDS011;44050;48.884;8.762;2023-02-28T05:02:16;2.95;;;1.48;;
58252;SDS011;44050;48.884;8.762;2023-02-28T05:04:46;5.93;;;2.30;;
58252;SDS011;44050;48.884;8.762;2023-02-28T05:07:17;1.63;;;1.50;;
58252;SDS011;44050;48.884;8.762;2023-02-28T05:09:51;2.42;;;2.22;;
58252;SDS011;44050;48.884;8.762;2023-02-28T05:12:25;4.00;;;2.20;;
58252;SDS011;44050;48.884;8.762;2023-02-28T05:14:56;3.35;;;3.05;;
58252;SDS011;44050;48.884;8.762;2023-02-28T05:17:27;2.37;;;2.17;;
58252;SDS011;44050;48.884;8.762;2023-02-28T05:19:58;2.30;;;2.05;;
58252;SDS011;44050;48.884;8.762;2023-02-28T05:22:32;1.40;;;0.83;;
58252;SDS011;44050;48.884;8.762;2023-02-28T05:25:16;3.38;;;1.95;;
58252;SDS011;44050;48.884;8.762;2023-02-28T05:27:48;3.05;;;1.52;;
58252;SDS011;44050;48.884;8.762;2023-02-28T05:30:18;3.10;;;2.60;;
58252;SDS011;44050;48.884;8.762;2023-02-28T05:32:50;2.80;;;2.60;;
58252;SDS011;44050;48.884;8.762;2023-02-28T05:37:52;2.10;;;1.65;;
58252;SDS011;44050;48.884;8.762;2023-02-28T05:40:23;3.85;;;3.38;;
58252;SDS011;44050;48.884;8.762;2023-02-28T05:42:53;4.83;;;2.43;;
58252;SDS011;44050;48.884;8.762;2023-02-28T05:45:24;2.77;;;1.70;;
58252;SDS011;44050;48.884;8.762;2023-02-28T05:47:55;1.97;;;1.77;;
58252;SDS011;44050;48.884;8.762;2023-02-28T05:50:26;3.45;;;2.25;;
58252;SDS011;44050;48.884;8.762;2023-02-28T05:52:57;2.23;;;2.03;;
58252;SDS011;44050;48.884;8.762;2023-02-28T05:55:27;1.30;;;1.30;;
58252;SDS011;44050;48.884;8.762;2023-02-28T05:57:58;1.77;;;1.67;;
58252;SDS011;44050;48.884;8.762;2023-02-28T06:00:29;5.90;;;2.57;;
58252;SDS011;44050;48.884;8.762;2023-02-28T06:03:00;2.47;;;2.00;;
58252;SDS011;44050;48.884;8.762;2023-02-28T06:05:32;6.78;;;2.53;;
58252;SDS011;44050;48.884;8.762;2023-02-28T06:08:03;4.35;;;2.42;;
58252;SDS011;44050;48.884;8.762;2023-02-28T06:10:36;3.38;;;2.80;;
58252;SDS011;44050;48.884;8.762;2023-02-28T06:13:10;2.42;;;2.22;;
58252;SDS011;44050;48.884;8.762;2023-02-28T06:15:44;2.65;;;2.17;;
58252;SDS011;44050;48.884;8.762;2023-02-28T06:18:24;2.30;;;2.10;;
58252;SDS011;44050;48.884;8.762;2023-02-28T06:21:00;2.95;;;2.72;;
58252;SDS011;44050;48.884;8.762;2023-02-28T06:23:33;1.88;;;1.77;;
58252;SDS011;44050;48.884;8.762;2023-02-28T06:26:07;2.08;;;1.90;;
58252;SDS011;44050;48.884;8.762;2023-02-28T06:28:37;1.97;;;1.87;;
58252;SDS011;44050;48.884;8.762;2023-02-28T06:31:09;2.50;;;2.13;;
58252;SDS011;44050;48.884;8.762;2023-02-28T06:33:40;2.45;;;2.22;;
58252;SDS011;44050;48.884;8.762;2023-02-28T06:36:11;2.40;;;2.20;;
58252;SDS011;44050;48.884;8.762;2023-02-28T06:38:43;1.70;;;1.60;;
58252;SDS011;44050;48.884;8.762;2023-02-28T06:41:21;3.80;;;3.00;;
58252;SDS011;44050;48.884;8.762;2023-02-28T06:44:01;3.53;;;2.67;;
58252;SDS011;44050;48.884;8.762;2023-02-28T06:46:41;4.47;;;2.88;;
58252;SDS011;44050;48.884;8.762;2023-02-28T06:49:22;3.08;;;2.58;;
58252;SDS011;44050;48.884;8.762;2023-02-28T06:51:57;2.50;;;1.85;;
58252;SDS011;44050;48.884;8.762;2023-02-28T06:54:27;2.88;;;1.83;;
58252;SDS011;44050;48.884;8.762;2023-02-28T06:56:58;1.30;;;1.10;;
58252;SDS011;44050;48.884;8.762;2023-02-28T06:59:29;2.20;;;1.83;;
58252;SDS011;44050;48.884;8.762;2023-02-28T07:02:00;2.45;;;2.35;;
58252;SDS011;44050;48.884;8.762;2023-02-28T07:04:58;4.05;;;2.28;;
58252;SDS011;44050;48.884;8.762;2023-02-28T07:07:29;2.13;;;1.88;;
58252;SDS011;44050;48.884;8.762;2023-02-28T07:10:03;3.67;;;2.13;;
58252;SDS011;44050;48.884;8.762;2023-02-28T07:12:43;3.05;;;2.75;;
58252;SDS011;44050;48.884;8.762;2023-02-28T07:15:14;2.23;;;2.03;;
58252;SDS011;44050;48.884;8.762;2023-02-28T07:17:44;2.60;;;2.40;;
58252;SDS011;44050;48.884;8.762;2023-02-28T07:20:15;4.67;;;2.60;;
58252;SDS011;44050;48.884;8.762;2023-02-28T07:22:46;2.17;;;1.88;;
58252;SDS011;44050;48.884;8.762;2023-02-28T07:25:27;2.10;;;1.90;;
58252;SDS011;44050;48.884;8.762;2023-02-28T07:27:58;2.47;;;2.28;;
58252;SDS011;44050;48.884;8.762;2023-02-28T07:30:29;3.20;;;2.47;;
58252;SDS011;44050;48.884;8.762;2023-02-28T07:33:00;7.40;;;2.43;;
58252;SDS011;44050;48.884;8.762;2023-02-28T07:35:31;2.63;;;2.37;;
58252;SDS011;44050;48.884;8.762;2023-02-28T07:38:01;3.15;;;2.85;;
58252;SDS011;44050;48.884;8.762;2023-02-28T07:40:33;3.33;;;1.98;;
58252;SDS011;44050;48.884;8.762;2023-02-28T07:43:04;4.40;;;2.67;;
58252;SDS011;44050;48.884;8.762;2023-02-28T07:45:36;3.25;;;2.22;;
58252;SDS011;44050;48.884;8.762;2023-02-28T07:48:06;4.43;;;3.07;;
58252;SDS011;44050;48.884;8.762;2023-02-28T07:50:40;3.65;;;2.65;;
58252;SDS011;44050;48.884;8.762;2023-02-28T07:53:11;2.70;;;2.23;;
58252;SDS011;44050;48.884;8.762;2023-02-28T07:55:41;3.70;;;3.10;;
58252;SDS011;44050;48.884;8.762;2023-02-28T07:58:12;4.80;;;2.10;;
58252;SDS011;44050;48.884;8.762;2023-02-28T08:00:43;3.40;;;2.37;;
58252;SDS011;44050;48.884;8.762;2023-02-28T08:03:13;3.50;;;2.00;;
58252;SDS011;44050;48.884;8.762;2023-02-28T08:05:44;2.42;;;2.22;;
58252;SDS011;44050;48.884;8.762;2023-02-28T08:08:15;3.23;;;2.93;;
58252;SDS011;44050;48.884;8.762;2023-02-28T08:10:47;2.75;;;2.55;;
58252;SDS011;44050;48.884;8.762;2023-02-28T08:13:17;4.27;;;2.97;;
58252;SDS011;44050;48.884;8.762;2023-02-28T08:15:48;5.43;;;3.17;;
58252;SDS011;44050;48.884;8.762;2023-02-28T08:18:19;3.97;;;3.33;;
58252;SDS011;44050;48.884;8.762;2023-02-28T08:20:50;5.00;;;3.13;;
58252;SDS011;44050;48.884;8.762;2023-02-28T08:23:20;3.20;;;2.43;;
58252;SDS011;44050;48.884;8.762;2023-02-28T08:25:54;5.10;;;2.90;;
58252;SDS011;44050;48.884;8.762;2023-02-28T08:28:25;5.63;;;2.78;;
58252;SDS011;44050;48.884;8.762;2023-02-28T08:30:56;3.50;;;2.97;;
58252;SDS011;44050;48.884;8.762;2023-02-28T08:33:27;2.83;;;2.63;;
58252;SDS011;44050;48.884;8.762;2023-02-28T08:35:58;1.70;;;1.60;;
58252;SDS011;44050;48.884;8.762;2023-02-28T08:38:29;3.53;;;2.22;;
58252;SDS011;44050;48.884;8.762;2023-02-28T08:41:01;2.72;;;2.50;;
58252;SDS011;44050;48.884;8.762;2023-02-28T08:43:32;3.42;;;2.25;;
58252;SDS011;44050;48.884;8.762;2023-02-28T08:46:03;2.40;;;2.20;;
58252;SDS011;44050;48.884;8.762;2023-02-28T08:48:34;4.60;;;4.03;;
58252;SDS011;44050;48.884;8.762;2023-02-28T08:51:06;3.13;;;2.83;;
58252;SDS011;44050;48.884;8.762;2023-02-28T08:53:38;3.50;;;2.67;;
58252;SDS011;44050;48.884;8.762;2023-02-28T08:56:11;3.72;;;3.42;;
58252;SDS011;44050;48.884;8.762;2023-02-28T08:58:42;7.03;;;3.17;;
58252;SDS011;44050;48.884;8.762;2023-02-28T09:03:44;3.50;;;2.58;;
58252;SDS011;44050;48.884;8.762;2023-02-28T09:06:17;3.35;;;2.35;;
58252;SDS011;44050;48.884;8.762;2023-02-28T09:08:48;3.42;;;2.78;;
58252;SDS011;44050;48.884;8.762;2023-02-28T09:11:19;1.60;;;1.55;;
58252;SDS011;44050;48.884;8.762;2023-02-28T09:13:50;4.35;;;2.75;;
58252;SDS011;44050;48.884;8.762;2023-02-28T09:16:21;3.00;;;2.80;;
58252;SDS011;44050;48.884;8.762;2023-02-28T09:18:52;4.32;;;3.92;;
58252;SDS011;44050;48.884;8.762;2023-02-28T09:21:23;5.13;;;3.33;;
58252;SDS011;44050;48.884;8.762;2023-02-28T09:23:53;3.55;;;3.25;;
58252;SDS011;44050;48.884;8.762;2023-02-28T09:26:25;9.27;;;3.00;;
58252;SDS011;44050;48.884;8.762;2023-02-28T09:28:56;5.35;;;4.53;;
58252;SDS011;44050;48.884;8.762;2023-02-28T09:31:29;7.55;;;3.50;;
58252;SDS011;44050;48.884;8.762;2023-02-28T09:34:00;8.03;;;4.10;;
58252;SDS011;44050;48.884;8.762;2023-02-28T09:36:31;4.13;;;3.42;;
58252;SDS011;44050;48.884;8.762;2023-02-28T09:39:03;4.60;;;4.15;;
58252;SDS011;44050;48.884;8.762;2023-02-28T09:41:38;3.47;;;2.73;;
58252;SDS011;44050;48.884;8.762;2023-02-28T09:46:51;5.95;;;3.67;;
58252;SDS011;44050;48.884;8.762;2023-02-28T09:49:25;3.47;;;3.15;;
58252;SDS011;44050;48.884;8.762;2023-02-28T09:52:07;7.00;;;4.32;;
58252;SDS011;44050;48.884;8.762;2023-02-28T09:54:39;3.75;;;3.45;;
58252;SDS011;44050;48.884;8.762;2023-02-28T10:04:47;4.93;;;3.30;;
58252;SDS011;44050;48.884;8.762;2023-02-28T10:10:03;4.30;;;3.95;;
58252;SDS011;44050;48.884;8.762;2023-02-28T10:12:35;5.10;;;4.53;;
58252;SDS011;44050;48.884;8.762;2023-02-28T10:15:12;4.35;;;3.88;;
58252;SDS011;44050;48.884;8.762;2023-02-28T10:17:45;6.47;;;4.82;;
58252;SDS011;44050;48.884;8.762;2023-02-28T10:20:19;3.67;;;2.88;;
58252;SDS011;44050;48.884;8.762;2023-02-28T10:25:41;4.40;;;3.10;;
58252;SDS011;44050;48.884;8.762;2023-02-28T10:28:18;5.97;;;3.45;;
58252;SDS011;44050;48.884;8.762;2023-02-28T10:30:50;5.77;;;3.37;;
58252;SDS011;44050;48.884;8.762;2023-02-28T10:33:25;7.22;;;3.28;;
58252;SDS011;44050;48.884;8.762;2023-02-28T10:35:58;3.88;;;3.22;;
58252;SDS011;44050;48.884;8.762;2023-02-28T10:38:37;4.20;;;3.28;;
58252;SDS011;44050;48.884;8.762;2023-02-28T10:41:27;9.43;;;6.85;;
58252;SDS011;44050;48.884;8.762;2023-02-28T10:44:21;18.38;;;11.13;;
58252;SDS011;44050;48.884;8.762;2023-02-28T10:46:52;44.50;;;27.67;;
58252;SDS011;44050;48.884;8.762;2023-02-28T10:49:24;66.82;;;37.42;;
58252;SDS011;44050;48.884;8.762;2023-02-28T10:51:57;90.80;;;42.63;;
58252;SDS011;44050;48.884;8.762;2023-02-28T10:54:35;46.60;;;27.40;;
58252;SDS011;44050;48.884;8.762;2023-02-28T10:59:43;25.48;;;15.77;;
58252;SDS011;44050;48.884;8.762;2023-02-28T11:04:59;11.32;;;8.43;;
58252;SDS011;44050;48.884;8.762;2023-02-28T11:07:30;14.15;;;7.63;;
58252;SDS011;44050;48.884;8.762;2023-02-28T11:10:01;10.55;;;7.20;;
58252;SDS011;44050;48.884;8.762;2023-02-28T11:12:36;14.73;;;7.05;;
58252;SDS011;44050;48.884;8.762;2023-02-28T11:17:58;5.80;;;4.63;;
58252;SDS011;44050;48.884;8.762;2023-02-28T11:20:31;6.95;;;5.13;;
58252;SDS011;44050;48.884;8.762;2023-02-28T11:23:03;7.88;;;4.60;;
58252;SDS011;44050;48.884;8.762;2023-02-28T11:28:05;6.13;;;4.17;;
58252;SDS011;44050;48.884;8.762;2023-02-28T11:30:38;4.22;;;3.83;;
58252;SDS011;44050;48.884;8.762;2023-02-28T11:35:49;3.47;;;3.22;;
58252;SDS011;44050;48.884;8.762;2023-02-28T11:38:20;6.05;;;3.95;;
58252;SDS011;44050;48.884;8.762;2023-02-28T11:43:30;3.90;;;3.17;;
58252;SDS011;44050;48.884;8.762;2023-02-28T11:48:43;6.22;;;3.88;;
58252;SDS011;44050;48.884;8.762;2023-02-28T11:51:21;7.35;;;4.30;;
58252;SDS011;44050;48.884;8.762;2023-02-28T11:56:43;4.60;;;3.67;;
58252;SDS011;44050;48.884;8.762;2023-02-28T12:07:38;5.35;;;4.07;;
58252;SDS011;44050;48.884;8.762;2023-02-28T12:26:35;15.50;;;4.32;;
58252;SDS011;44050;48.884;8.762;2023-02-28T12:29:12;5.70;;;3.67;;
58252;SDS011;44050;48.884;8.762;2023-02-28T12:31:52;4.57;;;4.18;;
58252;SDS011;44050;48.884;8.762;2023-02-28T12:34:43;4.45;;;3.65;;
58252;SDS011;44050;48.884;8.762;2023-02-28T12:37:22;5.00;;;3.78;;
58252;SDS011;44050;48.884;8.762;2023-02-28T12:39:56;6.90;;;4.03;;
58252;SDS011;44050;48.884;8.762;2023-02-28T12:42:42;4.38;;;3.97;;
58252;SDS011;44050;48.884;8.762;2023-02-28T12:45:18;3.22;;;2.97;;
58252;SDS011;44050;48.884;8.762;2023-02-28T12:48:13;3.38;;;3.10;;
58252;SDS011;44050;48.884;8.762;2023-02-28T12:50:41;5.55;;;3.45;;
58252;SDS011;44050;48.884;8.762;2023-02-28T12:58:22;7.65;;;3.97;;
58252;SDS011;44050;48.884;8.762;2023-02-28T13:06:54;4.93;;;4.25;;
58252;SDS011;44050;48.884;8.762;2023-02-28T13:09:28;3.97;;;3.50;;
58252;SDS011;44050;48.884;8.762;2023-02-28T13:12:00;5.72;;;4.15;;
58252;SDS011;44050;48.884;8.762;2023-02-28T13:24:56;5.05;;;2.97;;
58252;SDS011;44050;48.884;8.762;2023-02-28T13:27:36;4.25;;;3.90;;
58252;SDS011;44050;48.884;8.762;2023-02-28T13:36:44;4.10;;;3.70;;
58252;SDS011;44050;48.884;8.762;2023-02-28T13:38:52;3.60;;;3.30;;
58252;SDS011;44050;48.884;8.762;2023-02-28T13:52:17;4.95;;;3.03;;
58252;SDS011;44050;48.884;8.762;2023-02-28T14:05:40;3.78;;;3.38;;
58252;SDS011;44050;48.884;8.762;2023-02-28T14:10:47;5.68;;;4.07;;
58252;SDS011;44050;48.884;8.762;2023-02-28T14:15:56;4.18;;;3.45;;
58252;SDS011;44050;48.884;8.762;2023-02-28T14:21:08;3.83;;;3.50;;
58252;SDS011;44050;48.884;8.762;2023-02-28T14:26:37;4.43;;;3.22;;
58252;SDS011;44050;48.884;8.762;2023-02-28T14:32:06;5.75;;;4.40;;
58252;SDS011;44050;48.884;8.762;2023-02-28T14:37:16;15.75;;;4.30;;
58252;SDS011;44050;48.884;8.762;2023-02-28T14:39:49;3.88;;;3.35;;
58252;SDS011;44050;48.884;8.762;2023-02-28T14:42:36;4.15;;;3.75;;
58252;SDS011;44050;48.884;8.762;2023-02-28T14:45:17;6.93;;;4.15;;
58252;SDS011;44050;48.884;8.762;2023-02-28T14:47:49;3.45;;;3.15;;
58252;SDS011;44050;48.884;8.762;2023-02-28T14:50:24;4.68;;;4.25;;
58252;SDS011;44050;48.884;8.762;2023-02-28T14:52:57;4.85;;;3.92;;
58252;SDS011;44050;48.884;8.762;2023-02-28T14:55:29;4.20;;;3.60;;
58252;SDS011;44050;48.884;8.762;2023-02-28T14:58:01;7.45;;;4.93;;
58252;SDS011;44050;48.884;8.762;2023-02-28T15:00:40;4.13;;;3.53;;
58252;SDS011;44050;48.884;8.762;2023-02-28T15:03:18;3.80;;;3.28;;
58252;SDS011;44050;48.884;8.762;2023-02-28T15:05:57;4.32;;;4.03;;
58252;SDS011;44050;48.884;8.762;2023-02-28T15:08:28;4.53;;;3.58;;
58252;SDS011;44050;48.884;8.762;2023-02-28T15:11:00;6.15;;;4.07;;
58252;SDS011;44050;48.884;8.762;2023-02-28T15:13:35;3.83;;;3.53;;
58252;SDS011;44050;48.884;8.762;2023-02-28T15:16:11;5.28;;;4.60;;
58252;SDS011;44050;48.884;8.762;2023-02-28T15:21:15;5.63;;;3.58;;
58252;SDS011;44050;48.884;8.762;2023-02-28T15:23:51;4.18;;;3.78;;
58252;SDS011;44050;48.884;8.762;2023-02-28T15:26:25;5.60;;;4.75;;
58252;SDS011;44050;48.884;8.762;2023-02-28T15:28:58;5.05;;;4.30;;
58252;SDS011;44050;48.884;8.762;2023-02-28T15:31:40;3.78;;;3.47;;
58252;SDS011;44050;48.884;8.762;2023-02-28T15:36:42;3.37;;;2.67;;
58252;SDS011;44050;48.884;8.762;2023-02-28T15:39:20;4.07;;;3.63;;
58252;SDS011;44050;48.884;8.762;2023-02-28T15:41:52;5.40;;;4.10;;
58252;SDS011;44050;48.884;8.762;2023-02-28T15:47:02;4.85;;;4.38;;
58252;SDS011;44050;48.884;8.762;2023-02-28T15:49:40;5.50;;;4.65;;
58252;SDS011;44050;48.884;8.762;2023-02-28T15:52:16;5.57;;;4.55;;
58252;SDS011;44050;48.884;8.762;2023-02-28T15:54:47;6.32;;;3.95;;
58252;SDS011;44050;48.884;8.762;2023-02-28T15:57:22;6.85;;;4.32;;
58252;SDS011;44050;48.884;8.762;2023-02-28T15:59:57;5.13;;;4.07;;
58252;SDS011;44050;48.884;8.762;2023-02-28T16:02:34;4.57;;;3.88;;
58252;SDS011;44050;48.884;8.762;2023-02-28T16:07:37;4.85;;;3.97;;
58252;SDS011;44050;48.884;8.762;2023-02-28T16:10:09;4.80;;;4.05;;
58252;SDS011;44050;48.884;8.762;2023-02-28T16:12:40;4.00;;;3.60;;
58252;SDS011;44050;48.884;8.762;2023-02-28T16:15:22;13.57;;;5.10;;
58252;SDS011;44050;48.884;8.762;2023-02-28T16:17:53;4.85;;;3.88;;
58252;SDS011;44050;48.884;8.762;2023-02-28T16:20:26;4.15;;;3.75;;
58252;SDS011;44050;48.884;8.762;2023-02-28T16:22:57;6.85;;;4.82;;
58252;SDS011;44050;48.884;8.762;2023-02-28T16:28:08;4.07;;;3.67;;
58252;SDS011;44050;48.884;8.762;2023-02-28T16:30:41;3.47;;;3.17;;
58252;SDS011;44050;48.884;8.762;2023-02-28T16:33:12;5.20;;;4.55;;
58252;SDS011;44050;48.884;8.762;2023-02-28T16:35:43;5.38;;;3.88;;
58252;SDS011;44050;48.884;8.762;2023-02-28T16:38:14;3.83;;;2.85;;
58252;SDS011;44050;48.884;8.762;2023-02-28T16:40:44;4.55;;;3.35;;
58252;SDS011;44050;48.884;8.762;2023-02-28T16:43:19;4.93;;;3.67;;
58252;SDS011;44050;48.884;8.762;2023-02-28T16:45:55;4.53;;;4.03;;
58252;SDS011;44050;48.884;8.762;2023-02-28T16:48:27;4.07;;;3.67;;
58252;SDS011;44050;48.884;8.762;2023-02-28T16:50:58;5.13;;;3.83;;
58252;SDS011;44050;48.884;8.762;2023-02-28T16:53:28;4.57;;;2.77;;
58252;SDS011;44050;48.884;8.762;2023-02-28T16:56:00;6.00;;;4.63;;
58252;SDS011;44050;48.884;8.762;2023-02-28T16:58:32;4.28;;;3.72;;
58252;SDS011;44050;48.884;8.762;2023-02-28T17:01:06;6.50;;;3.78;;
58252;SDS011;44050;48.884;8.762;2023-02-28T17:03:36;6.78;;;4.38;;
58252;SDS011;44050;48.884;8.762;2023-02-28T17:06:15;3.65;;;2.95;;
58252;SDS011;44050;48.884;8.762;2023-02-28T17:08:46;4.55;;;3.92;;
58252;SDS011;44050;48.884;8.762;2023-02-28T17:11:17;5.32;;;3.97;;
58252;SDS011;44050;48.884;8.762;2023-02-28T17:13:48;6.03;;;3.95;;
58252;SDS011;44050;48.884;8.762;2023-02-28T17:18:50;6.73;;;5.07;;
58252;SDS011;44050;48.884;8.762;2023-02-28T17:21:21;7.15;;;5.03;;
58252;SDS011;44050;48.884;8.762;2023-02-28T17:23:52;4.60;;;3.60;;
58252;SDS011;44050;48.884;8.762;2023-02-28T17:26:22;5.87;;;3.87;;
58252;SDS011;44050;48.884;8.762;2023-02-28T17:28:56;5.25;;;3.95;;
58252;SDS011;44050;48.884;8.762;2023-02-28T17:31:27;4.90;;;4.43;;
58252;SDS011;44050;48.884;8.762;2023-02-28T17:33:58;5.88;;;4.45;;
58252;SDS011;44050;48.884;8.762;2023-02-28T17:36:29;5.25;;;3.60;;
58252;SDS011;44050;48.884;8.762;2023-02-28T17:39:00;4.97;;;4.20;;
58252;SDS011;44050;48.884;8.762;2023-02-28T17:41:31;5.85;;;4.30;;
58252;SDS011;44050;48.884;8.762;2023-02-28T17:44:02;3.83;;;2.95;;
58252;SDS011;44050;48.884;8.762;2023-02-28T17:46:36;4.30;;;3.80;;
58252;SDS011;44050;48.884;8.762;2023-02-28T17:49:08;4.32;;;3.88;;
58252;SDS011;44050;48.884;8.762;2023-02-28T17:51:39;4.20;;;3.85;;
58252;SDS011;44050;48.884;8.762;2023-02-28T17:54:21;4.20;;;3.80;;
58252;SDS011;44050;48.884;8.762;2023-02-28T17:56:52;4.57;;;4.18;;
58252;SDS011;44050;48.884;8.762;2023-02-28T17:59:23;7.82;;;4.75;;
58252;SDS011;44050;48.884;8.762;2023-02-28T18:01:55;5.20;;;3.42;;
58252;SDS011;44050;48.884;8.762;2023-02-28T18:04:26;5.88;;;3.75;;
58252;SDS011;44050;48.884;8.762;2023-02-28T18:06:57;3.67;;;3.38;;
58252;SDS011;44050;48.884;8.762;2023-02-28T18:09:30;4.63;;;3.88;;
58252;SDS011;44050;48.884;8.762;2023-02-28T18:12:01;4.82;;;3.42;;
58252;SDS011;44050;48.884;8.762;2023-02-28T18:14:39;10.00;;;5.33;;
58252;SDS011;44050;48.884;8.762;2023-02-28T18:20:24;4.80;;;4.15;;
58252;SDS011;44050;48.884;8.762;2023-02-28T18:22:55;4.47;;;3.08;;